Time;durP1;ratioP1;P1;durP2;ratioP2;P2;SDS_P1;SDS_P2;PMS_P1;PMS_P2;Temp;Humidity;BMP_temperature;BMP_pressure;BME280_temperature;BME280_humidity;BME280_pressure;Samples;Min_cycle;Max_cycle;Signal;HPM_P1;HPM_P2
2022/07/18 00:00:45;;;;;;;;;;;;;;;13.79;100.00;102088.97;5064537;28;19939;-75
2022/07/18 00:03:10;;;;;;;;;;;;;;;13.81;100.00;102084.28;5081983;28;19939;-74
2022/07/18 00:05:35;;;;;;;;;;;;;;;13.83;100.00;102082.28;5074795;28;19920;-74
2022/07/18 00:08:01;;;;;;;;;;;;;;;13.86;100.00;102083.81;5066239;28;19912;-74
2022/07/18 00:10:26;;;;;;;;;;;;;;;13.83;100.00;102076.09;5065761;28;19920;-74
2022/07/18 00:12:51;;;;;;;;;;;;;;;13.79;100.00;102077.38;5064891;28;19912;-74
2022/07/18 00:15:16;;;;;;;;;;;;;;;13.75;100.00;102084.91;5081813;28;20406;-74
2022/07/18 00:17:42;;;;;;;;;;;;;;;13.71;100.00;102083.50;5059883;28;19948;-74
2022/07/18 00:20:08;;;;;;;;;;;;;;;13.60;100.00;102079.22;5081083;28;19921;-74
2022/07/18 00:22:34;;;;;;;;;;;;;;;13.57;100.00;102082.16;5060843;28;20818;-75
2022/07/18 00:24:59;;;;;;;;;;;;;;;13.59;100.00;102084.72;5066058;28;19920;-75
2022/07/18 00:27:24;;;;;;;;;;;;;;;13.48;100.00;102078.53;5065850;28;20163;-74
2022/07/18 00:29:50;;;;;;;;;;;;;;;13.44;100.00;102076.34;5051256;28;20292;-74
2022/07/18 00:32:15;;;;;;;;;;;;;;;13.35;100.00;102072.69;5063844;28;20046;-74
2022/07/18 00:34:40;;;;;;;;;;;;;;;13.35;100.00;102071.84;5060737;28;20373;-74
2022/07/18 00:37:06;;;;;;;;;;;;;;;13.35;100.00;102067.34;5065679;28;20003;-74
2022/07/18 00:39:31;;;;;;;;;;;;;;;13.35;100.00;102061.97;5065389;28;19921;-74
2022/07/18 00:41:57;;;;;;;;;;;;;;;13.31;100.00;102071.28;5064516;28;19966;-74
2022/07/18 00:44:24;;;;;;;;;;;;;;;13.25;100.00;102061.13;5064387;28;19923;-74
2022/07/18 00:46:52;;;;;;;;;;;;;;;13.22;100.00;102056.91;5064076;28;19917;-76
2022/07/18 00:49:18;;;;;;;;;;;;;;;13.21;100.00;102059.75;5080770;28;19993;-74
2022/07/18 00:51:44;;;;;;;;;;;;;;;13.20;100.00;102055.34;5054718;28;20460;-75
2022/07/18 00:54:09;;;;;;;;;;;;;;;13.17;100.00;102058.34;5049295;28;19927;-75
2022/07/18 00:56:34;;;;;;;;;;;;;;;13.16;100.00;102062.88;5039317;28;19923;-73
2022/07/18 00:59:00;;;;;;;;;;;;;;;13.20;100.00;102069.59;5064320;28;19916;-74
2022/07/18 01:01:45;;;;;;;;;;;;;;;13.15;100.00;102063.84;5063960;28;19912;-73
2022/07/18 01:04:12;;;;;;;;;;;;;;;13.12;100.00;102063.31;5065162;28;19917;-75
2022/07/18 01:06:37;;;;;;;;;;;;;;;13.15;100.00;102063.00;5065612;28;20019;-74
2022/07/18 01:09:03;;;;;;;;;;;;;;;13.15;100.00;102063.00;5064033;28;20006;-74
2022/07/18 01:11:28;;;;;;;;;;;;;;;13.12;100.00;102055.25;5065090;28;20406;-73
2022/07/18 01:13:54;;;;;;;;;;;;;;;13.08;100.00;102054.69;5065802;28;20085;-73
2022/07/18 01:16:19;;;;;;;;;;;;;;;13.05;100.00;102055.84;5064333;28;19923;-74
2022/07/18 01:18:48;;;;;;;;;;;;;;;13.00;100.00;102049.25;5065312;28;20389;-75
2022/07/18 01:21:14;;;;;;;;;;;;;;;12.93;100.00;102054.34;5063870;28;19917;-74
2022/07/18 01:23:39;;;;;;;;;;;;;;;12.85;100.00;102048.84;5065625;28;19920;-75
2022/07/18 01:26:04;;;;;;;;;;;;;;;12.83;100.00;102048.16;5065320;28;19951;-74
2022/07/18 01:28:30;;;;;;;;;;;;;;;12.81;100.00;102052.84;5051141;28;19917;-73
2022/07/18 01:30:55;;;;;;;;;;;;;;;12.80;100.00;102053.81;5064971;28;20038;-73
2022/07/18 01:33:20;;;;;;;;;;;;;;;12.76;100.00;102055.06;5057224;28;20281;-73
2022/07/18 01:35:46;;;;;;;;;;;;;;;12.70;100.00;102055.69;5047303;28;19967;-74
2022/07/18 01:38:12;;;;;;;;;;;;;;;12.77;100.00;102068.34;5064018;28;19925;-73
2022/07/18 01:40:37;;;;;;;;;;;;;;;12.78;100.00;102066.50;5064658;28;19931;-74
2022/07/18 01:43:02;;;;;;;;;;;;;;;12.74;100.00;102060.59;5080625;28;19916;-73
2022/07/18 01:45:28;;;;;;;;;;;;;;;12.70;100.00;102056.50;5067044;28;20405;-74
2022/07/18 01:47:53;;;;;;;;;;;;;;;12.65;100.00;102058.78;5068900;28;19920;-74
2022/07/18 01:50:18;;;;;;;;;;;;;;;12.64;100.00;102057.06;5067506;28;20464;-74
2022/07/18 01:52:44;;;;;;;;;;;;;;;12.66;100.00;102065.81;5062677;28;19920;-75
2022/07/18 01:55:09;;;;;;;;;;;;;;;12.69;100.00;102060.19;5067713;28;19917;-74
2022/07/18 01:57:35;;;;;;;;;;;;;;;12.76;100.00;102071.16;5063952;28;19921;-74
2022/07/18 02:00:01;;;;;;;;;;;;;;;12.79;100.00;102074.41;5081737;28;19970;-73
2022/07/18 02:02:29;;;;;;;;;;;;;;;12.85;100.00;102075.66;5063877;28;19921;-74
2022/07/18 02:05:02;;;;;;;;;;;;;;;12.88;100.00;102065.50;5067348;28;19916;-74
2022/07/18 02:07:28;;;;;;;;;;;;;;;12.92;100.00;102073.25;5068526;28;19917;-74
2022/07/18 02:09:54;;;;;;;;;;;;;;;12.96;100.00;102077.31;5068005;28;20378;-74
2022/07/18 02:12:19;;;;;;;;;;;;;;;12.98;100.00;102078.03;5067083;28;19930;-74
2022/07/18 02:14:45;;;;;;;;;;;;;;;12.96;100.00;102062.06;5066595;28;20369;-74
2022/07/18 02:17:10;;;;;;;;;;;;;;;13.05;100.00;102049.63;5068719;28;19917;-74
2022/07/18 02:19:35;;;;;;;;;;;;;;;13.13;100.00;102055.09;5067833;28;19963;-73
2022/07/18 02:22:00;;;;;;;;;;;;;;;13.10;100.00;102048.19;5068706;28;20396;-75
2022/07/18 02:24:26;;;;;;;;;;;;;;;13.17;100.00;102042.25;5066565;28;19913;-73
2022/07/18 02:26:51;;;;;;;;;;;;;;;13.24;100.00;102043.34;5066943;28;19982;-74
2022/07/18 02:29:18;;;;;;;;;;;;;;;13.31;100.00;102047.16;5083562;28;19920;-74
2022/07/18 02:31:43;;;;;;;;;;;;;;;13.26;100.00;102042.19;5068283;28;20463;-74
2022/07/18 02:34:11;;;;;;;;;;;;;;;13.24;100.00;102037.97;5068431;28;20350;-73
2022/07/18 02:36:40;;;;;;;;;;;;;;;13.23;100.00;102037.16;5059824;28;19931;-75
2022/07/18 02:39:06;;;;;;;;;;;;;;;13.22;100.00;102039.97;5067646;28;20335;-74
2022/07/18 02:41:31;;;;;;;;;;;;;;;13.22;100.00;102039.97;5067542;28;19982;-74
2022/07/18 02:43:57;;;;;;;;;;;;;;;13.21;100.00;102035.59;5064563;28;20338;-73
2022/07/18 02:46:22;;;;;;;;;;;;;;;13.21;100.00;102027.56;5066795;28;20448;-74
2022/07/18 02:48:47;;;;;;;;;;;;;;;13.23;100.00;102030.94;5067782;28;20011;-75
2022/07/18 02:51:13;;;;;;;;;;;;;;;13.23;100.00;102036.31;5064804;28;19917;-74
2022/07/18 02:53:38;;;;;;;;;;;;;;;13.22;100.00;102037.28;5061786;28;20766;-74
2022/07/18 02:56:03;;;;;;;;;;;;;;;13.21;100.00;102036.44;5066778;28;19920;-74
2022/07/18 02:58:29;;;;;;;;;;;;;;;13.18;100.00;102030.53;5058052;28;19952;-75
2022/07/18 03:00:54;;;;;;;;;;;;;;;13.19;100.00;102030.38;5062043;28;19924;-74
2022/07/18 03:03:19;;;;;;;;;;;;;;;13.15;100.00;102026.31;5063365;28;19918;-75
2022/07/18 03:05:45;;;;;;;;;;;;;;;13.15;100.00;102017.41;5050065;28;19993;-73
2022/07/18 03:08:10;;;;;;;;;;;;;;;13.15;100.00;102014.75;5057256;28;19913;-74
2022/07/18 03:10:35;;;;;;;;;;;;;;;13.13;100.00;102024.75;5062046;28;19924;-74
2022/07/18 03:13:00;;;;;;;;;;;;;;;13.09;100.00;102013.50;5067063;28;19919;-73
2022/07/18 03:15:26;;;;;;;;;;;;;;;12.99;100.00;102008.16;5067286;28;20369;-75
2022/07/18 03:17:51;;;;;;;;;;;;;;;12.96;100.00;102000.44;5067573;28;20202;-74
2022/07/18 03:20:16;;;;;;;;;;;;;;;12.92;100.00;102004.38;5066651;28;20373;-74
2022/07/18 03:22:41;;;;;;;;;;;;;;;12.90;100.00;102006.41;5061814;28;19966;-74
2022/07/18 03:25:07;;;;;;;;;;;;;;;12.83;100.00;102002.59;5082574;28;19917;-74
2022/07/18 03:27:32;;;;;;;;;;;;;;;12.78;100.00;102003.06;5061946;28;19939;-74
2022/07/18 03:29:58;;;;;;;;;;;;;;;12.79;100.00;102017.28;5066290;28;19920;-74
2022/07/18 03:32:23;;;;;;;;;;;;;;;12.82;100.00;102025.03;5066842;28;19920;-74
2022/07/18 03:34:48;;;;;;;;;;;;;;;12.84;100.00;102025.72;5065761;28;19924;-75
2022/07/18 03:37:13;;;;;;;;;;;;;;;12.92;100.00;102025.81;5082037;28;20034;-76
2022/07/18 03:39:39;;;;;;;;;;;;;;;13.00;100.00;102033.16;5066529;28;20405;-75
2022/07/18 03:42:04;;;;;;;;;;;;;;;13.07;100.00;102032.41;5066657;28;19916;-75
2022/07/18 03:44:30;;;;;;;;;;;;;;;13.07;100.00;102028.91;5066690;28;19965;-75
2022/07/18 03:46:55;;;;;;;;;;;;;;;13.19;100.00;102016.13;5066715;28;19981;-76
2022/07/18 03:49:20;;;;;;;;;;;;;;;13.27;100.00;102026.94;5052251;28;19960;-74
2022/07/18 03:51:46;;;;;;;;;;;;;;;13.35;100.00;102024.41;5066232;28;20331;-74
2022/07/18 03:54:11;;;;;;;;;;;;;;;13.41;100.00;102031.84;5065235;28;19942;-76
2022/07/18 03:56:37;;;;;;;;;;;;;;;13.44;100.00;102028.03;5066530;28;19916;-75
2022/07/18 03:59:02;;;;;;;;;;;;;;;13.48;100.00;102019.50;5060045;28;19955;-74
2022/07/18 04:01:27;;;;;;;;;;;;;;;13.44;100.00;102004.75;5065815;28;19920;-75
2022/07/18 04:03:53;;;;;;;;;;;;;;;13.51;100.00;101996.94;5066444;28;20428;-74
2022/07/18 04:06:18;;;;;;;;;;;;;;;13.60;100.00;101984.44;5064806;28;20704;-75
2022/07/18 04:08:44;;;;;;;;;;;;;;;13.68;100.00;101971.09;5066094;28;19927;-76
2022/07/18 04:11:09;;;;;;;;;;;;;;;13.71;100.00;101965.41;5064367;28;19912;-75
2022/07/18 04:13:34;;;;;;;;;;;;;;;13.77;100.00;101948.72;5066522;28;19955;-75
2022/07/18 04:16:00;;;;;;;;;;;;;;;13.84;100.00;101944.41;5064911;28;19948;-75
2022/07/18 04:18:25;;;;;;;;;;;;;;;13.98;100.00;101936.78;5066534;28;19936;-74
2022/07/18 04:20:50;;;;;;;;;;;;;;;14.07;100.00;101930.47;5065657;28;19927;-74
2022/07/18 04:23:16;;;;;;;;;;;;;;;14.07;100.00;101919.75;5065817;28;20254;-74
2022/07/18 04:25:41;;;;;;;;;;;;;;;14.16;100.00;101921.47;5064679;28;19912;-74
2022/07/18 04:28:08;;;;;;;;;;;;;;;14.28;100.00;101938.19;5065956;28;19916;-74
2022/07/18 04:30:34;;;;;;;;;;;;;;;14.24;100.00;101934.16;5060571;28;19966;-75
2022/07/18 04:33:03;;;;;;;;;;;;;;;14.28;100.00;101931.00;5081290;28;19921;-76
2022/07/18 04:35:29;;;;;;;;;;;;;;;14.32;100.00;101929.66;5061523;28;19920;-76
2022/07/18 04:37:54;;;;;;;;;;;;;;;14.51;100.00;101923.19;5040323;28;19969;-75
2022/07/18 04:40:20;;;;;;;;;;;;;;;14.73;100.00;101919.16;5056356;28;19959;-74
2022/07/18 04:42:46;;;;;;;;;;;;;;;14.92;100.00;101901.09;5058366;28;19921;-75
2022/07/18 04:45:11;;;;;;;;;;;;;;;15.12;100.00;101901.63;5051704;28;20392;-74
2022/07/18 04:47:37;;;;;;;;;;;;;;;15.16;100.00;101893.06;5060355;28;19927;-75
2022/07/18 04:50:03;;;;;;;;;;;;;;;15.30;100.00;101890.75;5065016;28;20377;-75
2022/07/18 04:52:34;;;;;;;;;;;;;;;15.49;100.00;101876.16;5081192;28;19920;-75
2022/07/18 04:55:00;;;;;;;;;;;;;;;15.57;100.00;101851.94;5063835;28;19916;-75
2022/07/18 04:57:25;;;;;;;;;;;;;;;15.72;100.00;101836.81;5065384;28;19924;-75
2022/07/18 04:59:50;;;;;;;;;;;;;;;15.76;100.00;101813.09;5063898;28;19982;-75
2022/07/18 05:02:15;;;;;;;;;;;;;;;16.00;100.00;101794.16;5065041;28;19965;-75
2022/07/18 05:04:41;;;;;;;;;;;;;;;16.07;100.00;101796.19;5065153;28;19916;-76
2022/07/18 05:07:06;;;;;;;;;;;;;;;16.09;100.00;101802.25;5065237;28;19916;-74
2022/07/18 05:09:32;;;;;;;;;;;;;;;16.35;100.00;101802.81;5048137;28;19917;-75
2022/07/18 05:11:57;;;;;;;;;;;;;;;16.60;100.00;101816.16;5064110;28;20369;-76
2022/07/18 05:14:22;;;;;;;;;;;;;;;16.62;100.00;101781.78;5063749;28;19977;-74
2022/07/18 05:16:48;;;;;;;;;;;;;;;16.71;100.00;101775.31;5064368;28;19981;-76
2022/07/18 05:19:15;;;;;;;;;;;;;;;16.52;100.00;101759.59;5066363;28;19924;-76
2022/07/18 05:21:40;;;;;;;;;;;;;;;16.61;100.00;101780.94;5069286;28;19912;-76
2022/07/18 05:24:06;;;;;;;;;;;;;;;16.64;100.00;101802.16;5069308;28;19939;-76
2022/07/18 05:26:31;;;;;;;;;;;;;;;16.77;100.00;101801.59;5064516;28;20420;-75
2022/07/18 05:28:56;;;;;;;;;;;;;;;16.43;100.00;101773.09;5068230;28;20007;-75
2022/07/18 05:31:21;;;;;;;;;;;;;;;16.22;100.00;101806.06;5068882;28;20305;-76
2022/07/18 05:33:47;;;;;;;;;;;;;;;16.20;100.00;101823.41;5067217;28;20007;-75
2022/07/18 05:36:12;;;;;;;;;;;;;;;16.25;100.00;101829.13;5061427;28;19923;-76
2022/07/18 05:38:37;;;;;;;;;;;;;;;16.29;100.00;101843.91;5067123;28;19921;-75
2022/07/18 05:41:03;;;;;;;;;;;;;;;16.39;100.00;101863.44;5066220;28;19926;-75
2022/07/18 05:43:28;;;;;;;;;;;;;;;16.53;100.00;101866.41;5057077;28;20318;-77
2022/07/18 05:45:53;;;;;;;;;;;;;;;16.59;100.00;101900.75;5068846;28;20433;-76
2022/07/18 05:48:19;;;;;;;;;;;;;;;16.62;100.00;101857.25;5083816;28;20365;-76
2022/07/18 05:50:44;;;;;;;;;;;;;;;16.73;100.00;101837.16;5059500;28;19924;-77
2022/07/18 05:53:09;;;;;;;;;;;;;;;16.95;100.00;101857.13;5058762;28;19923;-76
2022/07/18 05:55:35;;;;;;;;;;;;;;;17.15;100.00;101835.94;5057763;28;19923;-75
2022/07/18 05:58:00;;;;;;;;;;;;;;;17.07;100.00;101812.56;5056251;28;19970;-75
2022/07/18 06:00:25;;;;;;;;;;;;;;;17.02;100.00;101809.53;5050114;28;19924;-75
2022/07/18 06:02:51;;;;;;;;;;;;;;;17.17;100.00;101872.50;5067415;28;19951;-76
2022/07/18 06:05:16;;;;;;;;;;;;;;;17.21;100.00;101837.94;5057876;28;19927;-75
2022/07/18 06:07:42;;;;;;;;;;;;;;;17.28;100.00;101820.84;5056094;28;20366;-75
2022/07/18 06:10:07;;;;;;;;;;;;;;;17.43;100.00;101799.28;5056238;28;19913;-76
2022/07/18 06:12:32;;;;;;;;;;;;;;;17.24;100.00;101767.41;5059493;28;19942;-75
2022/07/18 06:14:58;;;;;;;;;;;;;;;17.35;100.00;101836.28;5065738;28;19920;-75
2022/07/18 06:17:24;;;;;;;;;;;;;;;17.22;100.00;101778.38;5065823;28;19935;-77
2022/07/18 06:19:49;;;;;;;;;;;;;;;17.10;100.00;101766.31;5060121;28;19917;-77
2022/07/18 06:22:15;;;;;;;;;;;;;;;17.03;100.00;101824.72;5059088;28;19920;-75
2022/07/18 06:24:40;;;;;;;;;;;;;;;16.79;100.00;101842.75;5052215;28;20393;-75
2022/07/18 06:27:05;;;;;;;;;;;;;;;16.73;100.00;101832.63;5061911;28;19943;-75
2022/07/18 06:29:30;;;;;;;;;;;;;;;16.73;100.00;101864.13;5062785;28;20289;-76
2022/07/18 06:32:02;;;;;;;;;;;;;;;16.83;100.00;101906.09;5066724;28;20007;-75
2022/07/18 06:34:27;;;;;;;;;;;;;;;16.88;100.00;101884.81;5060306;28;19916;-75
2022/07/18 06:36:52;;;;;;;;;;;;;;;16.96;100.00;101877.72;5059258;28;19920;-75
2022/07/18 06:39:18;;;;;;;;;;;;;;;17.10;100.00;101893.13;5056986;28;19946;-76
2022/07/18 06:41:44;;;;;;;;;;;;;;;17.25;100.00;101879.72;5055342;28;19920;-76
2022/07/18 06:44:12;;;;;;;;;;;;;;;17.18;100.00;101830.19;5057802;28;19917;-76
2022/07/18 06:46:37;;;;;;;;;;;;;;;17.39;100.00;101835.75;5060234;28;20346;-76
2022/07/18 06:49:03;;;;;;;;;;;;;;;17.69;100.00;101849.34;5059942;28;19935;-75
2022/07/18 06:51:29;;;;;;;;;;;;;;;17.64;100.00;101819.34;5056135;28;20412;-76
2022/07/18 06:53:54;;;;;;;;;;;;;;;17.74;100.00;101890.13;5054560;28;19981;-76
2022/07/18 06:56:20;;;;;;;;;;;;;;;17.83;100.00;101845.84;5063699;28;19912;-75
2022/07/18 06:58:48;;;;;;;;;;;;;;;18.04;100.00;101837.03;5059804;28;19928;-76
2022/07/18 07:01:14;;;;;;;;;;;;;;;17.88;100.00;101784.00;5056883;28;20089;-77
2022/07/18 07:03:39;;;;;;;;;;;;;;;17.89;100.00;101757.84;5056268;28;20011;-76
2022/07/18 07:06:05;;;;;;;;;;;;;;;17.97;100.00;101773.13;5056465;28;19923;-76
2022/07/18 07:08:30;;;;;;;;;;;;;;;17.97;100.00;101821.75;5058780;28;19927;-75
2022/07/18 07:10:55;;;;;;;;;;;;;;;18.02;100.00;101844.47;5059420;28;19938;-76
2022/07/18 07:13:20;;;;;;;;;;;;;;;18.14;100.00;101810.59;5064272;28;20006;-76
2022/07/18 07:15:46;;;;;;;;;;;;;;;17.94;100.00;101787.84;5058536;28;19965;-75
2022/07/18 07:18:11;;;;;;;;;;;;;;;18.08;100.00;101842.91;5058298;28;19924;-75
2022/07/18 07:20:36;;;;;;;;;;;;;;;18.32;100.00;101807.47;5057916;28;19917;-75
2022/07/18 07:23:07;;;;;;;;;;;;;;;18.34;100.00;101778.41;5058350;28;20642;-76
2022/07/18 07:25:32;;;;;;;;;;;;;;;18.55;100.00;101801.94;5056231;28;19916;-76
2022/07/18 07:27:57;;;;;;;;;;;;;;;18.87;100.00;101745.75;5055995;28;19916;-77
2022/07/18 07:30:23;;;;;;;;;;;;;;;19.12;100.00;101757.00;5063059;28;19947;-75
2022/07/18 07:32:48;;;;;;;;;;;;;;;19.66;100.00;101709.50;5083035;28;20717;-75
2022/07/18 07:35:15;;;;;;;;;;;;;;;19.51;100.00;101749.41;5057857;28;19920;-76
2022/07/18 07:37:47;;;;;;;;;;;;;;;19.59;100.00;101716.75;5054544;28;19916;-75
2022/07/18 07:40:13;;;;;;;;;;;;;;;19.76;100.00;101679.34;5061869;28;19920;-75
2022/07/18 07:42:38;;;;;;;;;;;;;;;19.82;100.00;101673.16;5066633;28;19927;-76
2022/07/18 07:45:04;;;;;;;;;;;;;;;19.61;100.00;101703.84;5059116;28;19979;-76
2022/07/18 07:47:29;;;;;;;;;;;;;;;19.65;100.00;101759.28;5059100;28;19913;-76
2022/07/18 07:49:55;;;;;;;;;;;;;;;20.21;100.00;101650.78;5058501;28;19921;-75
2022/07/18 07:52:23;;;;;;;;;;;;;;;20.93;100.00;101632.13;5055690;28;19916;-75
2022/07/18 07:54:48;;;;;;;;;;;;;;;21.31;100.00;101568.13;5065747;28;19976;-76
2022/07/18 07:57:13;;;;;;;;;;;;;;;21.76;100.00;101554.59;5057441;28;20017;-77
2022/07/18 07:59:39;;;;;;;;;;;;;;;21.16;100.00;101370.16;5057326;28;19924;-77
2022/07/18 08:02:04;;;;;;;;;;;;;;;21.18;100.00;101499.22;5057180;28;19916;-75
2022/07/18 08:04:29;;;;;;;;;;;;;;;20.69;100.00;101418.38;5055347;28;20494;-75
2022/07/18 08:06:55;;;;;;;;;;;;;;;20.86;100.00;101453.00;5055176;28;20004;-76
2022/07/18 08:09:20;;;;;;;;;;;;;;;20.74;100.00;101453.84;5056092;28;19917;-76
2022/07/18 08:11:46;;;;;;;;;;;;;;;20.60;100.00;101459.31;5064232;28;20000;-75
2022/07/18 08:14:11;;;;;;;;;;;;;;;20.32;100.00;101521.06;5057172;28;20301;-75
2022/07/18 08:16:36;;;;;;;;;;;;;;;20.62;100.00;101611.00;5058546;28;20323;-76
2022/07/18 08:19:02;;;;;;;;;;;;;;;21.03;100.00;101567.34;5057503;28;19925;-75
2022/07/18 08:21:27;;;;;;;;;;;;;;;20.50;100.00;101485.19;5056458;28;20007;-75
2022/07/18 08:23:52;;;;;;;;;;;;;;;20.53;100.00;101558.81;5057066;28;20804;-75
2022/07/18 08:26:18;;;;;;;;;;;;;;;20.86;100.00;101583.25;5055165;28;20049;-76
2022/07/18 08:28:43;;;;;;;;;;;;;;;20.84;100.00;101438.81;5054603;28;19959;-76
2022/07/18 08:31:08;;;;;;;;;;;;;;;20.89;100.00;101499.75;5053509;28;20499;-76
2022/07/18 08:33:33;;;;;;;;;;;;;;;21.07;100.00;101557.75;5058105;28;19927;-77
2022/07/18 08:35:59;;;;;;;;;;;;;;;20.86;100.00;101452.13;5050658;28;19917;-76
2022/07/18 08:38:24;;;;;;;;;;;;;;;20.86;100.00;101433.13;5056355;28;19917;-76
2022/07/18 08:40:51;;;;;;;;;;;;;;;20.78;100.00;101476.81;5056555;28;19923;-76
2022/07/18 08:43:17;;;;;;;;;;;;;;;20.63;100.00;101477.06;5056417;28;19916;-76
2022/07/18 08:45:43;;;;;;;;;;;;;;;20.70;100.00;101428.19;5058036;28;20404;-76
2022/07/18 08:48:09;;;;;;;;;;;;;;;21.09;100.00;101495.06;5057493;28;19973;-76
2022/07/18 08:50:34;;;;;;;;;;;;;;;21.16;100.00;101462.47;5052944;28;19917;-76
2022/07/18 08:53:00;;;;;;;;;;;;;;;21.20;100.00;101428.44;5040724;28;19924;-76
2022/07/18 08:55:25;;;;;;;;;;;;;;;21.55;100.00;101392.75;5063482;28;19959;-76
2022/07/18 08:57:52;;;;;;;;;;;;;;;21.53;98.37;101343.22;5078693;28;19955;-75
2022/07/18 09:00:18;;;;;;;;;;;;;;;21.67;100.00;101443.44;5062111;28;19969;-76
2022/07/18 09:02:43;;;;;;;;;;;;;;;21.93;99.75;101442.41;5054320;28;20043;-77
2022/07/18 09:05:17;;;;;;;;;;;;;;;21.98;90.94;101258.75;5053070;28;19996;-78
2022/07/18 09:07:43;;;;;;;;;;;;;;;21.99;88.98;101234.09;5054385;28;19916;-76
2022/07/18 09:10:08;;;;;;;;;;;;;;;22.52;88.51;101330.56;5052614;28;20498;-77
2022/07/18 09:12:33;;;;;;;;;;;;;;;22.42;86.40;101270.44;5037954;28;19927;-76
2022/07/18 09:15:10;;;;;;;;;;;;;;;23.33;81.58;101317.56;5077006;28;19912;-77
2022/07/18 09:17:36;;;;;;;;;;;;;;;24.19;78.24;101380.72;5054193;28;19924;-76
2022/07/18 09:20:11;;;;;;;;;;;;;;;24.57;73.01;101300.25;5061416;28;19916;-76
2022/07/18 09:22:37;;;;;;;;;;;;;;;23.44;72.15;101073.44;5064550;28;20374;-76
2022/07/18 09:25:05;;;;;;;;;;;;;;;24.08;74.11;101247.91;5065396;28;19948;-78
2022/07/18 09:27:34;;;;;;;;;;;;;;;24.15;73.12;101246.69;5072863;28;19917;-76
2022/07/18 09:30:09;;;;;;;;;;;;;;;25.36;66.90;101281.25;5064567;28;19985;-76
2022/07/18 09:32:35;;;;;;;;;;;;;;;24.95;66.20;101173.16;5063358;28;20019;-76
2022/07/18 09:35:05;;;;;;;;;;;;;;;24.79;63.84;101065.56;5047804;28;20054;-76
2022/07/18 09:37:30;;;;;;;;;;;;;;;24.48;68.28;101189.81;5063721;28;19916;-76
2022/07/18 09:40:13;;;;;;;;;;;;;;;24.80;68.45;101267.38;5080314;28;19924;-76
2022/07/18 09:42:39;;;;;;;;;;;;;;;25.22;68.15;101302.59;5079667;28;19920;-76
2022/07/18 09:45:04;;;;;;;;;;;;;;;25.47;62.19;101143.66;5065545;28;19924;-77
2022/07/18 09:47:30;;;;;;;;;;;;;;;25.42;59.90;101030.69;5065243;28;19939;-76
2022/07/18 09:49:55;;;;;;;;;;;;;;;25.23;59.03;100981.81;5064966;28;20025;-77
2022/07/18 09:52:21;;;;;;;;;;;;;;;24.99;60.00;100988.59;5056733;28;20378;-77
2022/07/18 09:54:46;;;;;;;;;;;;;;;25.64;62.17;101227.53;5063520;28;19935;-76
2022/07/18 09:57:24;;;;;;;;;;;;;;;25.40;58.29;100961.78;5063231;28;19917;-77
2022/07/18 09:59:50;;;;;;;;;;;;;;;24.32;62.49;100952.09;5058155;28;19982;-76
2022/07/18 10:02:16;;;;;;;;;;;;;;;24.59;62.79;101055.19;5060727;28;20118;-77
2022/07/18 10:04:41;;;;;;;;;;;;;;;25.32;61.27;101148.06;5058959;28;19924;-77
2022/07/18 10:07:07;;;;;;;;;;;;;;;25.29;58.45;100971.81;5066912;28;19912;-76
2022/07/18 10:09:33;;;;;;;;;;;;;;;25.14;58.95;101002.44;5063497;28;20439;-77
2022/07/18 10:11:59;;;;;;;;;;;;;;;25.43;57.84;101000.38;5067325;28;19917;-77
2022/07/18 10:14:26;;;;;;;;;;;;;;;25.98;59.72;101206.41;5067368;28;19916;-77
2022/07/18 10:16:52;;;;;;;;;;;;;;;25.93;56.47;101011.34;5067795;28;19919;-77
2022/07/18 10:19:17;;;;;;;;;;;;;;;25.62;55.75;100893.44;5067456;28;19917;-77
2022/07/18 10:21:46;;;;;;;;;;;;;;;25.91;55.43;100962.34;5063075;28;19916;-77
2022/07/18 10:24:12;;;;;;;;;;;;;;;25.85;53.30;100834.84;5068514;28;20619;-77
2022/07/18 10:26:38;;;;;;;;;;;;;;;26.86;52.12;100976.22;5063437;28;19954;-77
2022/07/18 10:29:03;;;;;;;;;;;;;;;25.57;51.66;100641.91;5068653;28;19970;-77
2022/07/18 10:31:33;;;;;;;;;;;;;;;26.53;53.23;101016.50;5048795;28;19916;-77
2022/07/18 10:34:09;;;;;;;;;;;;;;;26.85;51.70;100958.13;5067098;28;19946;-77
2022/07/18 10:36:36;;;;;;;;;;;;;;;25.74;52.81;100779.25;5068954;28;19943;-77
2022/07/18 10:39:07;;;;;;;;;;;;;;;26.15;53.95;100962.81;5059937;28;19923;-77
2022/07/18 10:41:54;;;;;;;;;;;;;;;26.51;51.50;100878.25;5050749;28;19921;-77
2022/07/18 10:44:25;;;;;;;;;;;;;;;26.42;49.71;100727.38;5057454;28;20456;-77
2022/07/18 10:47:02;;;;;;;;;;;;;;;26.36;50.95;100787.81;5056059;28;19917;-77
2022/07/18 10:49:46;;;;;;;;;;;;;;;26.37;51.36;100838.75;5058733;28;19969;-77
2022/07/18 10:52:32;;;;;;;;;;;;;;;26.38;50.66;100808.38;5058362;28;19916;-77
2022/07/18 10:57:29;;;;;;;;;;;;;;;26.78;49.01;100729.41;5080973;28;20010;-77
2022/07/18 11:00:00;;;;;;;;;;;;;;;27.17;49.89;100946.22;5053738;28;20181;-77
2022/07/18 11:02:32;;;;;;;;;;;;;;;26.68;48.94;100724.75;5066455;28;20399;-78
2022/07/18 11:04:58;;;;;;;;;;;;;;;26.65;49.07;100711.59;5083758;28;20658;-77
2022/07/18 11:07:23;;;;;;;;;;;;;;;26.97;50.09;100891.34;5066236;28;19922;-78
2022/07/18 11:09:48;;;;;;;;;;;;;;;27.78;52.23;101234.41;5083369;28;19935;-78
2022/07/18 11:12:18;;;;;;;;;;;;;;;27.83;47.85;100876.16;5082963;28;20012;-78
2022/07/18 11:15:02;;;;;;;;;;;;;;;28.48;47.31;101002.72;5077219;28;20039;-77
2022/07/18 11:17:46;;;;;;;;;;;;;;;28.42;46.74;100895.59;5065261;28;19917;-78
2022/07/18 11:20:28;;;;;;;;;;;;;;;28.26;48.12;100956.28;5067144;28;19920;-77
2022/07/18 11:22:53;;;;;;;;;;;;;;;28.27;46.10;100750.13;5061601;28;19943;-79
2022/07/18 11:25:19;;;;;;;;;;;;;;;27.62;46.74;100643.06;5068135;28;19943;-78
2022/07/18 11:27:45;;;;;;;;;;;;;;;27.85;47.83;100802.69;5066140;28;20003;-78
2022/07/18 11:30:16;;;;;;;;;;;;;;;28.29;46.64;100794.59;5066998;28;19920;-78
2022/07/18 11:32:41;;;;;;;;;;;;;;;27.87;47.37;100723.66;5064360;28;20002;-75
2022/07/18 11:35:08;;;;;;;;;;;;;;;26.97;47.42;100527.00;5082994;28;20444;-76
2022/07/18 11:37:33;;;;;;;;;;;;;;;26.72;48.23;100561.56;5067813;28;19943;-76
2022/07/18 11:40:08;;;;;;;;;;;;;;;26.79;47.60;100511.97;5079266;28;20420;-76
2022/07/18 11:42:35;;;;;;;;;;;;;;;27.18;48.20;100673.81;5080048;28;20430;-75
2022/07/18 11:45:00;;;;;;;;;;;;;;;26.66;46.98;100431.22;5066913;28;19969;-76
2022/07/18 11:47:26;;;;;;;;;;;;;;;26.77;48.42;100637.41;5082663;28;19920;-75
2022/07/18 11:49:55;;;;;;;;;;;;;;;26.84;48.39;100636.03;5044391;28;19917;-76
2022/07/18 11:53:19;;;;;;;10.55;6.03;;;;;;;26.27;49.30;100558.50;5083181;27;20536;-77
2022/07/18 11:55:45;;;;;;;8.05;5.65;;;;;;;26.36;50.21;100683.81;5079627;28;20066;-76
2022/07/18 11:58:12;;;;;;;10.87;6.60;;;;;;;26.35;49.73;100641.97;5077390;28;20050;-76
2022/07/18 12:00:39;;;;;;;10.48;6.88;;;;;;;26.00;48.84;100468.44;5060207;28;20325;-76
2022/07/18 12:03:07;;;;;;;8.00;6.47;;;;;;;26.06;50.65;100645.16;5077906;28;20012;-75
2022/07/18 12:05:48;;;;;;;11.48;6.38;;;;;;;25.91;50.65;100612.28;5059892;28;20444;-75
2022/07/18 12:08:34;;;;;;;8.77;6.88;;;;;;;25.86;51.90;100686.91;5076493;28;20524;-77
2022/07/18 12:11:20;;;;;;;11.02;6.47;;;;;;;25.77;50.20;100529.09;5056008;28;20024;-76
2022/07/18 12:13:52;;;;;;;13.82;7.40;;;;;;;25.86;50.18;100576.69;5039188;28;20033;-77
2022/07/18 12:16:47;;;;;;;9.45;6.68;;;;;;;25.93;52.34;100759.72;5074105;28;20131;-76
2022/07/18 12:19:33;;;;;;;10.32;6.55;;;;;;;25.91;52.23;100710.72;5057538;28;20317;-76
2022/07/18 12:22:04;;;;;;;9.00;6.50;;;;;;;26.03;51.75;100708.59;5056945;28;20592;-76
2022/07/18 12:24:59;;;;;;;10.82;6.60;;;;;;;25.70;52.06;100672.31;5061155;28;20029;-76
2022/07/18 12:27:26;;;;;;;14.90;7.70;;;;;;;25.79;51.88;100686.31;5075790;28;20045;-76